sensor_id;sensor_type;location;lat;lon;timestamp;P1;durP1;ratioP1;P2;durP2;ratioP2
1370;SDS011;14306;49.942;11.570;2022-12-20T00:01:31;40.17;;;18.77;;
1370;SDS011;14306;49.942;11.570;2022-12-20T00:04:01;34.50;;;17.52;;
1370;SDS011;14306;49.942;11.570;2022-12-20T00:06:32;41.28;;;19.63;;
1370;SDS011;14306;49.942;11.570;2022-12-20T00:09:04;32.53;;;17.30;;
1370;SDS011;14306;49.942;11.570;2022-12-20T00:11:34;41.22;;;18.70;;
1370;SDS011;14306;49.942;11.570;2022-12-20T00:14:05;37.30;;;18.67;;
1370;SDS011;14306;49.942;11.570;2022-12-20T00:16:34;37.72;;;19.20;;
1370;SDS011;14306;49.942;11.570;2022-12-20T00:19:04;33.35;;;19.25;;
1370;SDS011;14306;49.942;11.570;2022-12-20T00:21:34;37.95;;;19.10;;
1370;SDS011;14306;49.942;11.570;2022-12-20T00:24:04;36.85;;;19.02;;
1370;SDS011;14306;49.942;11.570;2022-12-20T00:26:33;40.03;;;18.23;;
1370;SDS011;14306;49.942;11.570;2022-12-20T00:29:03;35.35;;;18.27;;
1370;SDS011;14306;49.942;11.570;2022-12-20T00:31:32;38.00;;;18.98;;
1370;SDS011;14306;49.942;11.570;2022-12-20T00:34:01;32.65;;;17.45;;
1370;SDS011;14306;49.942;11.570;2022-12-20T00:36:30;40.35;;;18.40;;
1370;SDS011;14306;49.942;11.570;2022-12-20T00:38:59;33.80;;;18.10;;
1370;SDS011;14306;49.942;11.570;2022-12-20T00:41:30;30.55;;;16.60;;
1370;SDS011;14306;49.942;11.570;2022-12-20T00:44:00;36.75;;;18.80;;
1370;SDS011;14306;49.942;11.570;2022-12-20T00:46:28;36.35;;;17.25;;
1370;SDS011;14306;49.942;11.570;2022-12-20T00:48:58;35.30;;;18.95;;
1370;SDS011;14306;49.942;11.570;2022-12-20T00:51:27;33.92;;;18.83;;
1370;SDS011;14306;49.942;11.570;2022-12-20T00:53:58;37.78;;;18.65;;
1370;SDS011;14306;49.942;11.570;2022-12-20T00:56:26;35.60;;;18.75;;
1370;SDS011;14306;49.942;11.570;2022-12-20T00:58:56;33.25;;;17.77;;
1370;SDS011;14306;49.942;11.570;2022-12-20T01:01:26;33.45;;;18.98;;
1370;SDS011;14306;49.942;11.570;2022-12-20T01:03:57;35.67;;;18.50;;
1370;SDS011;14306;49.942;11.570;2022-12-20T01:06:26;36.38;;;18.55;;
1370;SDS011;14306;49.942;11.570;2022-12-20T01:08:55;35.55;;;19.45;;
1370;SDS011;14306;49.942;11.570;2022-12-20T01:11:24;35.00;;;18.10;;
1370;SDS011;14306;49.942;11.570;2022-12-20T01:13:59;39.30;;;18.57;;
1370;SDS011;14306;49.942;11.570;2022-12-20T01:16:30;36.47;;;17.70;;
1370;SDS011;14306;49.942;11.570;2022-12-20T01:18:59;35.50;;;18.87;;
1370;SDS011;14306;49.942;11.570;2022-12-20T01:21:28;38.05;;;18.90;;
1370;SDS011;14306;49.942;11.570;2022-12-20T01:23:56;34.78;;;19.38;;
1370;SDS011;14306;49.942;11.570;2022-12-20T01:26:25;35.87;;;17.47;;
1370;SDS011;14306;49.942;11.570;2022-12-20T01:28:58;32.75;;;17.33;;
1370;SDS011;14306;49.942;11.570;2022-12-20T01:31:27;35.50;;;17.93;;
1370;SDS011;14306;49.942;11.570;2022-12-20T01:33:57;37.53;;;17.98;;
1370;SDS011;14306;49.942;11.570;2022-12-20T01:36:27;36.37;;;19.73;;
1370;SDS011;14306;49.942;11.570;2022-12-20T01:38:57;35.43;;;18.43;;
1370;SDS011;14306;49.942;11.570;2022-12-20T01:41:27;37.00;;;18.60;;
1370;SDS011;14306;49.942;11.570;2022-12-20T01:43:59;31.60;;;17.40;;
1370;SDS011;14306;49.942;11.570;2022-12-20T01:46:29;39.43;;;20.97;;
1370;SDS011;14306;49.942;11.570;2022-12-20T01:49:00;39.83;;;20.47;;
1370;SDS011;14306;49.942;11.570;2022-12-20T01:51:31;38.10;;;18.37;;
1370;SDS011;14306;49.942;11.570;2022-12-20T01:54:04;36.88;;;18.67;;
1370;SDS011;14306;49.942;11.570;2022-12-20T01:56:36;29.33;;;17.50;;
1370;SDS011;14306;49.942;11.570;2022-12-20T01:59:08;37.70;;;18.80;;
1370;SDS011;14306;49.942;11.570;2022-12-20T02:01:39;38.28;;;18.80;;
1370;SDS011;14306;49.942;11.570;2022-12-20T02:04:09;39.83;;;19.30;;
1370;SDS011;14306;49.942;11.570;2022-12-20T02:06:37;37.60;;;17.83;;
1370;SDS011;14306;49.942;11.570;2022-12-20T02:09:05;31.20;;;18.63;;
1370;SDS011;14306;49.942;11.570;2022-12-20T02:11:45;34.10;;;19.03;;
1370;SDS011;14306;49.942;11.570;2022-12-20T02:14:30;35.13;;;18.80;;
1370;SDS011;14306;49.942;11.570;2022-12-20T02:17:07;39.97;;;20.77;;
1370;SDS011;14306;49.942;11.570;2022-12-20T02:19:49;40.90;;;20.08;;
1370;SDS011;14306;49.942;11.570;2022-12-20T02:22:37;36.33;;;18.30;;
1370;SDS011;14306;49.942;11.570;2022-12-20T02:25:29;35.20;;;18.77;;
1370;SDS011;14306;49.942;11.570;2022-12-20T02:28:10;37.60;;;18.30;;
1370;SDS011;14306;49.942;11.570;2022-12-20T02:30:54;38.90;;;19.93;;
1370;SDS011;14306;49.942;11.570;2022-12-20T02:33:26;34.10;;;19.37;;
1370;SDS011;14306;49.942;11.570;2022-12-20T02:35:55;32.20;;;18.38;;
1370;SDS011;14306;49.942;11.570;2022-12-20T02:38:25;41.90;;;20.13;;
1370;SDS011;14306;49.942;11.570;2022-12-20T02:40:57;36.23;;;19.97;;
1370;SDS011;14306;49.942;11.570;2022-12-20T02:43:28;37.38;;;19.75;;
1370;SDS011;14306;49.942;11.570;2022-12-20T02:46:18;35.97;;;19.48;;
1370;SDS011;14306;49.942;11.570;2022-12-20T02:48:50;43.63;;;20.67;;
1370;SDS011;14306;49.942;11.570;2022-12-20T02:51:19;34.33;;;19.27;;
1370;SDS011;14306;49.942;11.570;2022-12-20T02:53:49;37.75;;;21.40;;
1370;SDS011;14306;49.942;11.570;2022-12-20T02:56:18;45.97;;;21.20;;
1370;SDS011;14306;49.942;11.570;2022-12-20T02:58:52;41.93;;;22.33;;
1370;SDS011;14306;49.942;11.570;2022-12-20T03:01:27;43.93;;;22.10;;
1370;SDS011;14306;49.942;11.570;2022-12-20T03:03:58;35.17;;;20.90;;
1370;SDS011;14306;49.942;11.570;2022-12-20T03:06:28;39.07;;;22.17;;
1370;SDS011;14306;49.942;11.570;2022-12-20T03:08:56;42.78;;;22.33;;
1370;SDS011;14306;49.942;11.570;2022-12-20T03:11:24;36.70;;;21.93;;
1370;SDS011;14306;49.942;11.570;2022-12-20T03:13:53;43.73;;;19.87;;
1370;SDS011;14306;49.942;11.570;2022-12-20T03:16:20;40.97;;;21.08;;
1370;SDS011;14306;49.942;11.570;2022-12-20T03:18:50;48.30;;;24.77;;
1370;SDS011;14306;49.942;11.570;2022-12-20T03:21:19;39.30;;;21.37;;
1370;SDS011;14306;49.942;11.570;2022-12-20T03:23:47;43.10;;;21.47;;
1370;SDS011;14306;49.942;11.570;2022-12-20T03:26:15;37.40;;;21.07;;
1370;SDS011;14306;49.942;11.570;2022-12-20T03:28:43;40.13;;;22.07;;
1370;SDS011;14306;49.942;11.570;2022-12-20T03:31:11;39.17;;;21.00;;
1370;SDS011;14306;49.942;11.570;2022-12-20T03:33:39;41.63;;;21.77;;
1370;SDS011;14306;49.942;11.570;2022-12-20T03:36:09;38.93;;;21.10;;
1370;SDS011;14306;49.942;11.570;2022-12-20T03:38:37;43.23;;;21.67;;
1370;SDS011;14306;49.942;11.570;2022-12-20T03:41:05;44.23;;;23.63;;
1370;SDS011;14306;49.942;11.570;2022-12-20T03:43:33;39.20;;;21.73;;
1370;SDS011;14306;49.942;11.570;2022-12-20T03:46:02;40.53;;;20.67;;
1370;SDS011;14306;49.942;11.570;2022-12-20T03:48:30;41.15;;;19.77;;
1370;SDS011;14306;49.942;11.570;2022-12-20T03:50:58;41.50;;;21.90;;
1370;SDS011;14306;49.942;11.570;2022-12-20T03:53:28;45.77;;;24.00;;
1370;SDS011;14306;49.942;11.570;2022-12-20T03:55:56;38.17;;;22.53;;
1370;SDS011;14306;49.942;11.570;2022-12-20T03:58:24;47.30;;;24.13;;
1370;SDS011;14306;49.942;11.570;2022-12-20T04:00:53;43.23;;;21.30;;
1370;SDS011;14306;49.942;11.570;2022-12-20T04:03:22;44.93;;;22.10;;
1370;SDS011;14306;49.942;11.570;2022-12-20T04:05:51;52.70;;;23.50;;
1370;SDS011;14306;49.942;11.570;2022-12-20T04:08:19;40.20;;;21.27;;
1370;SDS011;14306;49.942;11.570;2022-12-20T04:10:49;47.17;;;22.70;;
1370;SDS011;14306;49.942;11.570;2022-12-20T04:13:34;45.87;;;23.17;;
1370;SDS011;14306;49.942;11.570;2022-12-20T04:16:03;51.23;;;25.30;;
1370;SDS011;14306;49.942;11.570;2022-12-20T04:18:31;38.70;;;21.50;;
1370;SDS011;14306;49.942;11.570;2022-12-20T04:20:59;43.80;;;22.53;;
1370;SDS011;14306;49.942;11.570;2022-12-20T04:23:28;42.43;;;21.57;;
1370;SDS011;14306;49.942;11.570;2022-12-20T04:25:57;40.10;;;20.50;;
1370;SDS011;14306;49.942;11.570;2022-12-20T04:28:26;45.20;;;23.35;;
1370;SDS011;14306;49.942;11.570;2022-12-20T04:30:54;48.73;;;25.93;;
1370;SDS011;14306;49.942;11.570;2022-12-20T04:33:23;38.00;;;21.90;;
1370;SDS011;14306;49.942;11.570;2022-12-20T04:35:51;43.27;;;22.87;;
1370;SDS011;14306;49.942;11.570;2022-12-20T04:38:20;42.87;;;22.67;;
1370;SDS011;14306;49.942;11.570;2022-12-20T04:40:50;47.97;;;21.73;;
1370;SDS011;14306;49.942;11.570;2022-12-20T04:43:20;47.70;;;24.00;;
1370;SDS011;14306;49.942;11.570;2022-12-20T04:45:51;47.90;;;22.90;;
1370;SDS011;14306;49.942;11.570;2022-12-20T04:48:22;40.42;;;22.73;;
1370;SDS011;14306;49.942;11.570;2022-12-20T04:51:12;42.63;;;22.10;;
1370;SDS011;14306;49.942;11.570;2022-12-20T04:53:41;47.43;;;22.87;;
1370;SDS011;14306;49.942;11.570;2022-12-20T04:56:15;48.17;;;23.30;;
1370;SDS011;14306;49.942;11.570;2022-12-20T04:58:46;42.23;;;23.10;;
1370;SDS011;14306;49.942;11.570;2022-12-20T05:01:16;44.07;;;22.90;;
1370;SDS011;14306;49.942;11.570;2022-12-20T05:03:45;48.63;;;25.20;;
1370;SDS011;14306;49.942;11.570;2022-12-20T05:06:15;44.07;;;23.77;;
1370;SDS011;14306;49.942;11.570;2022-12-20T05:08:43;50.77;;;24.83;;
1370;SDS011;14306;49.942;11.570;2022-12-20T05:11:11;46.57;;;23.77;;
1370;SDS011;14306;49.942;11.570;2022-12-20T05:13:40;56.60;;;24.97;;
1370;SDS011;14306;49.942;11.570;2022-12-20T05:16:12;54.63;;;25.00;;
1370;SDS011;14306;49.942;11.570;2022-12-20T05:18:41;46.07;;;22.13;;
1370;SDS011;14306;49.942;11.570;2022-12-20T05:21:16;39.87;;;22.40;;
1370;SDS011;14306;49.942;11.570;2022-12-20T05:24:21;44.37;;;23.53;;
1370;SDS011;14306;49.942;11.570;2022-12-20T05:27:22;51.57;;;24.77;;
1370;SDS011;14306;49.942;11.570;2022-12-20T05:30:40;45.00;;;21.97;;
1370;SDS011;14306;49.942;11.570;2022-12-20T06:07:34;45.33;;;23.50;;
1370;SDS011;14306;49.942;11.570;2022-12-20T08:22:14;41.83;;;20.17;;
1370;SDS011;14306;49.942;11.570;2022-12-20T08:35:58;37.23;;;19.00;;
1370;SDS011;14306;49.942;11.570;2022-12-20T08:39:13;38.37;;;18.80;;
1370;SDS011;14306;49.942;11.570;2022-12-20T09:34:00;38.27;;;19.10;;
1370;SDS011;14306;49.942;11.570;2022-12-20T09:59:36;39.60;;;18.77;;
1370;SDS011;14306;49.942;11.570;2022-12-20T10:02:19;32.00;;;18.17;;
1370;SDS011;14306;49.942;11.570;2022-12-20T11:33:46;40.20;;;18.60;;
1370;SDS011;14306;49.942;11.570;2022-12-20T11:36:25;39.10;;;20.10;;
1370;SDS011;14306;49.942;11.570;2022-12-20T11:39:01;38.73;;;19.30;;
1370;SDS011;14306;49.942;11.570;2022-12-20T11:41:37;39.93;;;20.00;;
1370;SDS011;14306;49.942;11.570;2022-12-20T11:44:19;40.17;;;20.63;;
1370;SDS011;14306;49.942;11.570;2022-12-20T11:47:13;44.20;;;20.93;;
1370;SDS011;14306;49.942;11.570;2022-12-20T11:50:06;35.83;;;19.63;;
1370;SDS011;14306;49.942;11.570;2022-12-20T11:52:48;37.30;;;19.53;;
1370;SDS011;14306;49.942;11.570;2022-12-20T11:55:25;32.77;;;17.90;;
1370;SDS011;14306;49.942;11.570;2022-12-20T11:58:16;36.97;;;19.80;;
1370;SDS011;14306;49.942;11.570;2022-12-20T12:00:56;36.70;;;18.90;;
1370;SDS011;14306;49.942;11.570;2022-12-20T12:03:31;33.83;;;18.77;;
1370;SDS011;14306;49.942;11.570;2022-12-20T12:06:07;34.73;;;18.30;;
1370;SDS011;14306;49.942;11.570;2022-12-20T12:09:04;32.30;;;17.23;;
1370;SDS011;14306;49.942;11.570;2022-12-20T12:11:40;40.73;;;20.07;;
1370;SDS011;14306;49.942;11.570;2022-12-20T12:14:40;37.07;;;18.93;;
1370;SDS011;14306;49.942;11.570;2022-12-20T12:17:20;32.30;;;18.03;;
1370;SDS011;14306;49.942;11.570;2022-12-20T12:19:59;35.07;;;17.43;;
1370;SDS011;14306;49.942;11.570;2022-12-20T12:22:46;33.47;;;18.50;;
1370;SDS011;14306;49.942;11.570;2022-12-20T12:25:21;36.77;;;18.13;;
1370;SDS011;14306;49.942;11.570;2022-12-20T12:27:50;38.20;;;19.20;;
1370;SDS011;14306;49.942;11.570;2022-12-20T12:30:19;33.87;;;18.93;;
1370;SDS011;14306;49.942;11.570;2022-12-20T12:32:52;38.77;;;17.90;;
1370;SDS011;14306;49.942;11.570;2022-12-20T12:35:44;33.70;;;18.63;;
1370;SDS011;14306;49.942;11.570;2022-12-20T12:38:27;38.33;;;20.13;;
1370;SDS011;14306;49.942;11.570;2022-12-20T12:41:17;34.60;;;18.53;;
1370;SDS011;14306;49.942;11.570;2022-12-20T12:43:58;39.97;;;19.80;;
1370;SDS011;14306;49.942;11.570;2022-12-20T12:46:59;36.33;;;19.97;;
1370;SDS011;14306;49.942;11.570;2022-12-20T12:49:48;39.33;;;20.00;;
1370;SDS011;14306;49.942;11.570;2022-12-20T13:17:39;37.97;;;20.37;;
1370;SDS011;14306;49.942;11.570;2022-12-20T13:20:19;34.47;;;18.30;;
1370;SDS011;14306;49.942;11.570;2022-12-20T13:25:43;42.43;;;18.97;;
1370;SDS011;14306;49.942;11.570;2022-12-20T13:31:32;42.50;;;20.23;;
1370;SDS011;14306;49.942;11.570;2022-12-20T13:34:00;43.47;;;19.73;;
1370;SDS011;14306;49.942;11.570;2022-12-20T13:36:30;40.80;;;19.83;;
1370;SDS011;14306;49.942;11.570;2022-12-20T13:39:03;38.90;;;17.83;;
1370;SDS011;14306;49.942;11.570;2022-12-20T13:44:49;39.63;;;19.50;;
1370;SDS011;14306;49.942;11.570;2022-12-20T13:47:38;38.97;;;18.33;;
1370;SDS011;14306;49.942;11.570;2022-12-20T13:53:06;38.17;;;20.13;;
1370;SDS011;14306;49.942;11.570;2022-12-20T13:55:44;45.23;;;20.63;;
1370;SDS011;14306;49.942;11.570;2022-12-20T13:58:13;37.83;;;18.33;;
1370;SDS011;14306;49.942;11.570;2022-12-20T14:00:44;31.90;;;17.93;;
1370;SDS011;14306;49.942;11.570;2022-12-20T14:03:20;34.33;;;18.17;;
1370;SDS011;14306;49.942;11.570;2022-12-20T14:05:52;38.03;;;19.50;;
1370;SDS011;14306;49.942;11.570;2022-12-20T14:08:25;41.43;;;18.67;;
1370;SDS011;14306;49.942;11.570;2022-12-20T14:11:05;39.80;;;20.43;;
1370;SDS011;14306;49.942;11.570;2022-12-20T14:13:36;33.60;;;18.70;;
1370;SDS011;14306;49.942;11.570;2022-12-20T14:16:09;43.30;;;19.43;;
1370;SDS011;14306;49.942;11.570;2022-12-20T14:18:45;37.00;;;20.30;;
1370;SDS011;14306;49.942;11.570;2022-12-20T14:21:15;36.47;;;19.00;;
1370;SDS011;14306;49.942;11.570;2022-12-20T14:23:46;42.27;;;17.80;;
1370;SDS011;14306;49.942;11.570;2022-12-20T14:26:17;41.53;;;18.67;;
1370;SDS011;14306;49.942;11.570;2022-12-20T14:28:51;35.93;;;17.30;;
1370;SDS011;14306;49.942;11.570;2022-12-20T14:31:23;33.63;;;17.70;;
1370;SDS011;14306;49.942;11.570;2022-12-20T14:34:04;41.67;;;18.13;;
1370;SDS011;14306;49.942;11.570;2022-12-20T14:36:40;36.23;;;18.10;;
1370;SDS011;14306;49.942;11.570;2022-12-20T14:39:20;34.50;;;17.83;;
1370;SDS011;14306;49.942;11.570;2022-12-20T14:41:55;32.00;;;17.53;;
1370;SDS011;14306;49.942;11.570;2022-12-20T14:44:25;41.83;;;20.43;;
1370;SDS011;14306;49.942;11.570;2022-12-20T14:46:56;38.67;;;19.20;;
1370;SDS011;14306;49.942;11.570;2022-12-20T14:49:27;32.17;;;17.40;;
1370;SDS011;14306;49.942;11.570;2022-12-20T14:52:05;37.60;;;18.70;;
1370;SDS011;14306;49.942;11.570;2022-12-20T14:54:42;38.60;;;18.50;;
1370;SDS011;14306;49.942;11.570;2022-12-20T14:57:37;36.27;;;18.00;;
1370;SDS011;14306;49.942;11.570;2022-12-20T15:00:11;33.53;;;16.37;;
1370;SDS011;14306;49.942;11.570;2022-12-20T15:02:45;36.80;;;18.53;;
1370;SDS011;14306;49.942;11.570;2022-12-20T15:05:41;42.40;;;17.90;;
1370;SDS011;14306;49.942;11.570;2022-12-20T15:08:16;36.07;;;18.57;;
1370;SDS011;14306;49.942;11.570;2022-12-20T15:10:47;34.90;;;17.17;;
1370;SDS011;14306;49.942;11.570;2022-12-20T15:13:19;39.47;;;19.00;;
1370;SDS011;14306;49.942;11.570;2022-12-20T15:15:49;34.37;;;17.50;;
1370;SDS011;14306;49.942;11.570;2022-12-20T15:18:18;35.23;;;16.93;;
1370;SDS011;14306;49.942;11.570;2022-12-20T15:20:52;34.60;;;18.27;;
1370;SDS011;14306;49.942;11.570;2022-12-20T15:23:27;35.90;;;18.10;;
1370;SDS011;14306;49.942;11.570;2022-12-20T15:25:57;43.93;;;19.37;;
1370;SDS011;14306;49.942;11.570;2022-12-20T15:28:25;38.37;;;18.17;;
1370;SDS011;14306;49.942;11.570;2022-12-20T15:30:54;38.00;;;18.87;;
1370;SDS011;14306;49.942;11.570;2022-12-20T15:33:24;36.93;;;18.30;;
1370;SDS011;14306;49.942;11.570;2022-12-20T15:35:58;36.53;;;17.10;;
1370;SDS011;14306;49.942;11.570;2022-12-20T15:38:27;41.23;;;18.07;;
1370;SDS011;14306;49.942;11.570;2022-12-20T15:41:16;36.20;;;16.67;;
1370;SDS011;14306;49.942;11.570;2022-12-20T15:43:47;34.50;;;19.83;;
1370;SDS011;14306;49.942;11.570;2022-12-20T15:46:18;39.83;;;19.57;;
1370;SDS011;14306;49.942;11.570;2022-12-20T15:48:46;37.60;;;17.53;;
1370;SDS011;14306;49.942;11.570;2022-12-20T15:51:18;41.73;;;19.07;;
1370;SDS011;14306;49.942;11.570;2022-12-20T15:53:51;36.80;;;18.27;;
1370;SDS011;14306;49.942;11.570;2022-12-20T15:56:20;36.37;;;18.50;;
1370;SDS011;14306;49.942;11.570;2022-12-20T15:58:49;38.60;;;20.00;;
1370;SDS011;14306;49.942;11.570;2022-12-20T16:01:19;41.17;;;19.70;;
1370;SDS011;14306;49.942;11.570;2022-12-20T16:03:49;37.23;;;18.50;;
1370;SDS011;14306;49.942;11.570;2022-12-20T16:06:19;32.37;;;17.57;;
1370;SDS011;14306;49.942;11.570;2022-12-20T16:08:48;33.00;;;16.93;;
1370;SDS011;14306;49.942;11.570;2022-12-20T16:11:18;36.57;;;17.70;;
1370;SDS011;14306;49.942;11.570;2022-12-20T16:13:48;38.50;;;17.87;;
1370;SDS011;14306;49.942;11.570;2022-12-20T16:16:17;31.83;;;15.90;;
1370;SDS011;14306;49.942;11.570;2022-12-20T16:18:47;36.37;;;18.80;;
1370;SDS011;14306;49.942;11.570;2022-12-20T16:21:18;35.90;;;18.23;;
1370;SDS011;14306;49.942;11.570;2022-12-20T16:23:48;34.97;;;17.67;;
1370;SDS011;14306;49.942;11.570;2022-12-20T16:26:17;31.77;;;16.17;;
1370;SDS011;14306;49.942;11.570;2022-12-20T16:28:47;29.50;;;15.10;;
1370;SDS011;14306;49.942;11.570;2022-12-20T16:31:20;32.07;;;17.07;;
1370;SDS011;14306;49.942;11.570;2022-12-20T16:33:51;36.53;;;19.13;;
1370;SDS011;14306;49.942;11.570;2022-12-20T16:36:21;36.03;;;16.37;;
1370;SDS011;14306;49.942;11.570;2022-12-20T16:38:50;33.53;;;18.20;;
1370;SDS011;14306;49.942;11.570;2022-12-20T16:41:20;31.33;;;16.27;;
1370;SDS011;14306;49.942;11.570;2022-12-20T16:43:50;27.60;;;15.40;;
1370;SDS011;14306;49.942;11.570;2022-12-20T16:46:19;38.63;;;17.47;;
1370;SDS011;14306;49.942;11.570;2022-12-20T16:48:49;35.93;;;16.97;;
1370;SDS011;14306;49.942;11.570;2022-12-20T16:51:23;28.97;;;15.13;;
1370;SDS011;14306;49.942;11.570;2022-12-20T16:53:54;39.37;;;16.60;;
1370;SDS011;14306;49.942;11.570;2022-12-20T16:56:43;33.63;;;15.90;;
1370;SDS011;14306;49.942;11.570;2022-12-20T16:59:13;35.87;;;17.07;;
1370;SDS011;14306;49.942;11.570;2022-12-20T17:01:47;33.07;;;17.13;;
1370;SDS011;14306;49.942;11.570;2022-12-20T17:04:17;37.43;;;18.97;;
1370;SDS011;14306;49.942;11.570;2022-12-20T17:06:47;29.73;;;15.77;;
1370;SDS011;14306;49.942;11.570;2022-12-20T17:09:15;30.33;;;15.70;;
1370;SDS011;14306;49.942;11.570;2022-12-20T17:12:04;32.27;;;16.93;;
1370;SDS011;14306;49.942;11.570;2022-12-20T17:14:42;29.10;;;16.40;;
1370;SDS011;14306;49.942;11.570;2022-12-20T17:17:10;32.50;;;14.63;;
1370;SDS011;14306;49.942;11.570;2022-12-20T17:19:38;34.33;;;16.57;;
1370;SDS011;14306;49.942;11.570;2022-12-20T17:22:09;31.60;;;16.27;;
1370;SDS011;14306;49.942;11.570;2022-12-20T17:24:49;31.77;;;15.40;;
1370;SDS011;14306;49.942;11.570;2022-12-20T17:27:18;30.90;;;16.20;;
1370;SDS011;14306;49.942;11.570;2022-12-20T17:29:46;30.63;;;15.83;;
1370;SDS011;14306;49.942;11.570;2022-12-20T17:32:17;31.93;;;15.87;;
1370;SDS011;14306;49.942;11.570;2022-12-20T17:34:47;33.67;;;17.07;;
1370;SDS011;14306;49.942;11.570;2022-12-20T17:37:19;37.60;;;16.60;;
1370;SDS011;14306;49.942;11.570;2022-12-20T17:39:48;32.67;;;15.97;;
1370;SDS011;14306;49.942;11.570;2022-12-20T17:42:16;32.77;;;17.03;;
1370;SDS011;14306;49.942;11.570;2022-12-20T17:44:48;33.23;;;18.47;;
1370;SDS011;14306;49.942;11.570;2022-12-20T17:47:17;29.70;;;15.67;;
1370;SDS011;14306;49.942;11.570;2022-12-20T17:49:46;29.67;;;15.63;;
1370;SDS011;14306;49.942;11.570;2022-12-20T17:54:59;31.37;;;14.77;;
1370;SDS011;14306;49.942;11.570;2022-12-20T17:57:28;28.47;;;15.57;;
1370;SDS011;14306;49.942;11.570;2022-12-20T17:59:56;28.30;;;15.80;;
1370;SDS011;14306;49.942;11.570;2022-12-20T18:02:25;31.33;;;14.87;;
1370;SDS011;14306;49.942;11.570;2022-12-20T18:04:54;26.60;;;14.07;;
1370;SDS011;14306;49.942;11.570;2022-12-20T18:07:23;30.63;;;15.93;;
1370;SDS011;14306;49.942;11.570;2022-12-20T18:09:51;27.13;;;14.80;;
1370;SDS011;14306;49.942;11.570;2022-12-20T18:12:25;31.90;;;15.30;;
1370;SDS011;14306;49.942;11.570;2022-12-20T18:15:02;32.40;;;16.60;;
1370;SDS011;14306;49.942;11.570;2022-12-20T18:17:33;25.90;;;14.73;;
1370;SDS011;14306;49.942;11.570;2022-12-20T18:20:01;28.43;;;15.00;;
1370;SDS011;14306;49.942;11.570;2022-12-20T18:22:31;27.83;;;14.60;;
1370;SDS011;14306;49.942;11.570;2022-12-20T18:25:00;25.30;;;14.37;;
1370;SDS011;14306;49.942;11.570;2022-12-20T18:27:36;31.20;;;16.30;;
1370;SDS011;14306;49.942;11.570;2022-12-20T18:30:09;32.20;;;15.43;;
1370;SDS011;14306;49.942;11.570;2022-12-20T18:32:38;43.10;;;17.37;;
1370;SDS011;14306;49.942;11.570;2022-12-20T18:35:08;32.53;;;14.63;;
1370;SDS011;14306;49.942;11.570;2022-12-20T18:37:37;30.83;;;14.83;;
1370;SDS011;14306;49.942;11.570;2022-12-20T18:40:06;34.23;;;15.23;;
1370;SDS011;14306;49.942;11.570;2022-12-20T18:42:37;32.87;;;17.50;;
1370;SDS011;14306;49.942;11.570;2022-12-20T18:45:05;26.00;;;15.40;;
1370;SDS011;14306;49.942;11.570;2022-12-20T18:47:36;27.70;;;15.17;;
1370;SDS011;14306;49.942;11.570;2022-12-20T18:50:06;27.20;;;15.83;;
1370;SDS011;14306;49.942;11.570;2022-12-20T18:52:37;26.67;;;15.37;;
1370;SDS011;14306;49.942;11.570;2022-12-20T18:55:11;31.00;;;16.07;;
1370;SDS011;14306;49.942;11.570;2022-12-20T18:57:41;33.60;;;16.17;;
1370;SDS011;14306;49.942;11.570;2022-12-20T19:00:09;25.20;;;15.13;;
1370;SDS011;14306;49.942;11.570;2022-12-20T19:02:38;30.20;;;15.73;;
1370;SDS011;14306;49.942;11.570;2022-12-20T19:05:07;31.60;;;16.63;;
1370;SDS011;14306;49.942;11.570;2022-12-20T19:07:36;33.47;;;17.87;;
1370;SDS011;14306;49.942;11.570;2022-12-20T19:10:04;28.77;;;15.97;;
1370;SDS011;14306;49.942;11.570;2022-12-20T19:12:34;36.60;;;17.10;;
1370;SDS011;14306;49.942;11.570;2022-12-20T19:15:33;35.03;;;17.23;;
1370;SDS011;14306;49.942;11.570;2022-12-20T19:18:02;31.20;;;16.60;;
1370;SDS011;14306;49.942;11.570;2022-12-20T19:20:33;34.40;;;15.53;;
1370;SDS011;14306;49.942;11.570;2022-12-20T19:23:02;32.57;;;17.07;;
1370;SDS011;14306;49.942;11.570;2022-12-20T19:25:31;37.63;;;16.90;;
1370;SDS011;14306;49.942;11.570;2022-12-20T19:28:01;35.27;;;17.07;;
1370;SDS011;14306;49.942;11.570;2022-12-20T19:30:29;30.17;;;15.63;;
1370;SDS011;14306;49.942;11.570;2022-12-20T19:33:00;30.53;;;16.67;;
1370;SDS011;14306;49.942;11.570;2022-12-20T19:35:29;33.40;;;15.30;;
1370;SDS011;14306;49.942;11.570;2022-12-20T19:38:18;30.07;;;16.70;;
1370;SDS011;14306;49.942;11.570;2022-12-20T19:40:50;33.20;;;15.60;;
1370;SDS011;14306;49.942;11.570;2022-12-20T19:43:20;33.73;;;17.50;;
1370;SDS011;14306;49.942;11.570;2022-12-20T19:45:49;28.80;;;15.93;;
1370;SDS011;14306;49.942;11.570;2022-12-20T19:48:19;31.70;;;16.07;;
1370;SDS011;14306;49.942;11.570;2022-12-20T19:50:47;35.50;;;16.90;;
1370;SDS011;14306;49.942;11.570;2022-12-20T19:53:16;37.97;;;18.57;;
1370;SDS011;14306;49.942;11.570;2022-12-20T19:55:50;38.63;;;16.90;;
1370;SDS011;14306;49.942;11.570;2022-12-20T19:58:19;37.87;;;17.90;;
1370;SDS011;14306;49.942;11.570;2022-12-20T20:00:47;33.30;;;16.03;;
1370;SDS011;14306;49.942;11.570;2022-12-20T20:03:16;43.73;;;19.23;;
1370;SDS011;14306;49.942;11.570;2022-12-20T20:05:47;41.87;;;17.90;;
1370;SDS011;14306;49.942;11.570;2022-12-20T20:08:15;37.27;;;18.83;;
1370;SDS011;14306;49.942;11.570;2022-12-20T20:10:44;37.27;;;17.67;;
1370;SDS011;14306;49.942;11.570;2022-12-20T20:13:14;41.23;;;19.80;;
1370;SDS011;14306;49.942;11.570;2022-12-20T20:15:48;41.43;;;18.83;;
1370;SDS011;14306;49.942;11.570;2022-12-20T20:18:17;36.93;;;17.80;;
1370;SDS011;14306;49.942;11.570;2022-12-20T20:20:47;39.60;;;18.30;;
1370;SDS011;14306;49.942;11.570;2022-12-20T20:23:15;35.87;;;17.97;;
1370;SDS011;14306;49.942;11.570;2022-12-20T20:25:44;32.90;;;17.77;;
1370;SDS011;14306;49.942;11.570;2022-12-20T20:28:13;41.10;;;18.60;;
1370;SDS011;14306;49.942;11.570;2022-12-20T20:30:42;37.43;;;17.50;;
1370;SDS011;14306;49.942;11.570;2022-12-20T20:33:12;45.23;;;18.57;;
1370;SDS011;14306;49.942;11.570;2022-12-20T20:35:40;39.87;;;16.80;;
1370;SDS011;14306;49.942;11.570;2022-12-20T20:38:17;36.40;;;16.87;;
1370;SDS011;14306;49.942;11.570;2022-12-20T20:40:46;37.07;;;17.30;;
1370;SDS011;14306;49.942;11.570;2022-12-20T20:43:15;36.63;;;16.83;;
1370;SDS011;14306;49.942;11.570;2022-12-20T20:45:43;34.80;;;17.23;;
1370;SDS011;14306;49.942;11.570;2022-12-20T20:48:12;41.20;;;20.00;;
1370;SDS011;14306;49.942;11.570;2022-12-20T20:50:40;37.97;;;17.20;;
1370;SDS011;14306;49.942;11.570;2022-12-20T20:53:09;36.50;;;18.13;;
1370;SDS011;14306;49.942;11.570;2022-12-20T20:55:40;37.60;;;16.93;;
1370;SDS011;14306;49.942;11.570;2022-12-20T20:58:08;36.17;;;18.47;;
1370;SDS011;14306;49.942;11.570;2022-12-20T21:00:36;38.00;;;18.90;;
1370;SDS011;14306;49.942;11.570;2022-12-20T21:03:04;41.23;;;18.47;;
1370;SDS011;14306;49.942;11.570;2022-12-20T21:05:33;35.77;;;17.40;;
1370;SDS011;14306;49.942;11.570;2022-12-20T21:08:21;35.60;;;17.30;;
1370;SDS011;14306;49.942;11.570;2022-12-20T21:10:51;38.27;;;20.20;;
1370;SDS011;14306;49.942;11.570;2022-12-20T21:13:19;29.70;;;15.63;;
1370;SDS011;14306;49.942;11.570;2022-12-20T21:15:47;34.77;;;18.27;;